createdAt,value
2017-11-21T00:01:39.884Z,80.84
2017-11-21T00:04:08.176Z,80.72
2017-11-21T00:06:36.512Z,80.52
2017-11-21T00:09:06.117Z,80.48
2017-11-21T00:11:34.427Z,80.40
2017-11-21T00:14:02.773Z,80.33
2017-11-21T00:16:32.580Z,80.42
2017-11-21T00:19:00.917Z,80.60
2017-11-21T00:21:29.993Z,80.78
2017-11-21T00:23:58.343Z,81.08
2017-11-21T00:26:27.951Z,80.73
2017-11-21T00:28:56.671Z,80.49
2017-11-21T00:31:25.002Z,80.31
2017-11-21T00:33:53.323Z,80.35
2017-11-21T00:36:21.619Z,80.27
2017-11-21T00:38:50.739Z,80.05
2017-11-21T00:41:19.819Z,80.02
2017-11-21T00:43:48.115Z,79.87
2017-11-21T00:46:16.455Z,79.97
2017-11-21T00:48:45.519Z,79.98
2017-11-21T00:51:13.862Z,79.96
2017-11-21T00:53:42.154Z,79.97
2017-11-21T00:56:10.503Z,79.83
2017-11-21T00:58:39.214Z,79.79
2017-11-21T01:01:07.556Z,79.83
2017-11-21T01:03:36.612Z,79.97
2017-11-21T01:06:05.691Z,79.96
2017-11-21T01:08:34.008Z,79.98
2017-11-21T01:11:03.070Z,79.99
2017-11-21T01:13:31.410Z,79.90
2017-11-21T01:15:59.702Z,80.08
2017-11-21T01:18:28.000Z,80.04
2017-11-21T01:20:57.094Z,80.04
2017-11-21T01:23:25.447Z,79.95
2017-11-21T01:25:53.803Z,79.98
2017-11-21T01:28:22.116Z,79.91
2017-11-21T01:30:50.418Z,79.83
2017-11-21T01:33:20.256Z,79.77
2017-11-21T01:35:49.689Z,79.77
2017-11-21T01:38:18.034Z,79.69
2017-11-21T01:40:46.329Z,79.63
2017-11-21T01:43:15.405Z,79.64
2017-11-21T01:45:44.522Z,79.81
2017-11-21T01:48:13.646Z,79.82
2017-11-21T01:50:41.942Z,79.87
2017-11-21T01:53:10.633Z,79.87
2017-11-21T01:55:40.456Z,79.91
2017-11-21T01:58:08.758Z,79.93
2017-11-21T02:00:37.471Z,80.03
2017-11-21T02:03:05.764Z,80.14
2017-11-21T02:05:34.095Z,80.30
2017-11-21T02:08:02.421Z,80.52
2017-11-21T02:10:30.729Z,80.50
2017-11-21T02:12:59.834Z,80.72
2017-11-21T02:15:28.914Z,80.75
2017-11-21T02:17:57.239Z,80.84
2017-11-21T02:20:26.294Z,80.95
2017-11-21T02:22:55.743Z,81.05
2017-11-21T02:25:24.462Z,81.02
2017-11-21T02:27:52.825Z,81.06
2017-11-21T02:30:21.131Z,81.24
2017-11-21T02:32:50.197Z,81.40
2017-11-21T02:35:18.531Z,81.46
2017-11-21T02:37:46.843Z,81.52
2017-11-21T02:40:15.178Z,81.50
2017-11-21T02:42:43.482Z,81.53
2017-11-21T02:45:11.829Z,81.48
2017-11-21T02:47:40.894Z,81.54
2017-11-21T02:50:09.233Z,81.78
2017-11-21T02:52:37.529Z,81.65
2017-11-21T02:55:05.882Z,81.53
2017-11-21T02:57:34.573Z,81.44
2017-11-21T03:00:02.918Z,81.66
2017-11-21T03:02:31.212Z,81.62
2017-11-21T03:04:59.542Z,81.71
2017-11-21T03:07:27.874Z,81.77
2017-11-21T03:09:56.953Z,81.76
2017-11-21T03:12:25.251Z,81.73
2017-11-21T03:14:54.717Z,81.75
2017-11-21T03:17:23.807Z,81.69
2017-11-21T03:19:53.245Z,81.70
2017-11-21T03:22:39.246Z,81.73
2017-11-21T03:28:38.993Z,82.00
2017-11-21T03:31:07.720Z,81.98
2017-11-21T03:33:36.797Z,81.92
2017-11-21T03:36:05.130Z,81.79
2017-11-21T03:38:33.465Z,81.70
2017-11-21T03:41:02.534Z,81.72
2017-11-21T03:43:30.867Z,81.72
2017-11-21T03:45:59.168Z,81.72
2017-11-21T03:48:27.507Z,81.83
2017-11-21T03:50:56.253Z,82.01
2017-11-21T03:53:24.556Z,82.14
2017-11-21T03:55:52.886Z,82.21
2017-11-21T03:58:21.233Z,82.18
2017-11-21T04:00:54.556Z,82.21
2017-11-21T04:03:23.661Z,82.20
2017-11-21T04:05:52.741Z,82.26
2017-11-21T04:08:22.209Z,82.26
2017-11-21T04:10:51.257Z,82.13
2017-11-21T04:13:19.554Z,82.02
2017-11-21T04:15:47.877Z,81.93
2017-11-21T04:18:16.577Z,81.76
2017-11-21T04:20:45.248Z,81.63
2017-11-21T04:23:13.541Z,81.69
2017-11-21T04:25:41.860Z,81.71
2017-11-21T04:28:10.157Z,81.65
2017-11-21T04:30:40.004Z,81.67
2017-11-21T04:33:08.340Z,81.65
2017-11-21T04:35:37.461Z,81.76
2017-11-21T04:38:07.165Z,81.92
2017-11-21T04:40:35.476Z,82.00
2017-11-21T04:43:03.808Z,82.03
2017-11-21T04:45:32.158Z,82.08
2017-11-21T04:48:00.518Z,82.17
2017-11-21T04:50:28.881Z,82.19
2017-11-21T04:52:57.233Z,82.17
2017-11-21T04:55:25.603Z,82.00
2017-11-21T04:57:55.463Z,81.88
2017-11-21T05:00:23.795Z,81.82
2017-11-21T05:02:52.117Z,81.70
2017-11-21T05:05:20.471Z,81.69
2017-11-21T05:07:48.784Z,81.71
2017-11-21T05:10:17.136Z,81.60
2017-11-21T05:12:46.845Z,81.52
2017-11-21T05:15:15.184Z,81.54
2017-11-21T05:17:44.297Z,81.44
2017-11-21T05:20:12.724Z,81.51
2017-11-21T05:22:41.284Z,81.73
2017-11-21T05:25:11.160Z,81.88
2017-11-21T05:27:39.608Z,81.89
2017-11-21T05:30:09.472Z,81.88
2017-11-21T05:32:57.344Z,81.98
2017-11-21T05:35:29.272Z,82.12
2017-11-21T05:37:57.732Z,82.17
2017-11-21T05:40:26.048Z,82.25
2017-11-21T05:42:54.372Z,82.10
2017-11-21T05:45:22.665Z,81.98
2017-11-21T05:47:50.949Z,81.93
2017-11-21T05:50:19.751Z,81.85
2017-11-21T05:52:48.817Z,81.74
2017-11-21T05:55:17.112Z,81.67
2017-11-21T05:57:45.437Z,81.76
2017-11-21T06:00:13.768Z,81.90
2017-11-21T06:02:43.244Z,82.14
2017-11-21T06:05:12.640Z,82.37
2017-11-21T06:07:42.308Z,82.60
2017-11-21T06:10:11.404Z,83.07
2017-11-21T06:12:39.693Z,83.35
2017-11-21T06:15:08.760Z,83.39
2017-11-21T06:17:37.892Z,83.23
2017-11-21T06:20:06.211Z,83.10
2017-11-21T06:22:34.551Z,83.06
2017-11-21T06:25:02.880Z,83.08
2017-11-21T06:27:31.216Z,83.08
2017-11-21T06:30:00.036Z,83.30
2017-11-21T06:32:28.421Z,83.24
2017-11-21T06:34:57.508Z,83.24
2017-11-21T06:37:26.239Z,83.38
2017-11-21T06:39:54.568Z,83.36
2017-11-21T06:42:22.919Z,83.39
2017-11-21T06:44:51.647Z,83.60
2017-11-21T06:47:22.301Z,83.64
2017-11-21T06:49:50.633Z,83.57
2017-11-21T06:52:19.326Z,83.53
2017-11-21T06:54:47.651Z,83.28
2017-11-21T06:57:15.961Z,83.22
2017-11-21T06:59:44.684Z,83.15
2017-11-21T07:02:12.987Z,83.29
2017-11-21T07:04:41.312Z,83.23
2017-11-21T07:07:10.764Z,83.36
2017-11-21T07:09:39.110Z,83.27
2017-11-21T07:12:07.545Z,83.31
2017-11-21T07:14:37.235Z,83.37
2017-11-21T07:17:05.569Z,83.08
2017-11-21T07:19:33.877Z,82.94
2017-11-21T07:22:02.185Z,83.01
2017-11-21T07:24:30.908Z,83.23
2017-11-21T07:26:59.207Z,83.36
2017-11-21T07:29:27.536Z,83.33
2017-11-21T07:31:55.963Z,83.14
2017-11-21T07:34:24.998Z,82.96
2017-11-21T07:36:54.115Z,82.62
2017-11-21T07:39:22.419Z,82.50
2017-11-21T07:41:51.503Z,82.50
2017-11-21T07:44:20.251Z,82.39
2017-11-21T07:46:49.357Z,82.14
2017-11-21T07:49:17.648Z,81.68
2017-11-21T07:51:45.987Z,81.22
2017-11-21T07:54:14.319Z,80.90
2017-11-21T07:56:43.383Z,80.55
2017-11-21T07:59:12.475Z,80.33
2017-11-21T08:01:41.529Z,80.08
2017-11-21T08:04:10.981Z,80.00
2017-11-21T08:06:39.319Z,79.69
2017-11-21T08:09:07.624Z,79.40
2017-11-21T08:11:36.700Z,79.24
2017-11-21T08:14:05.428Z,79.37
2017-11-21T08:16:33.727Z,79.33
2017-11-21T08:19:02.033Z,79.14
2017-11-21T08:21:30.360Z,79.12
2017-11-21T08:23:58.692Z,79.37
2017-11-21T08:26:27.008Z,79.20
2017-11-21T08:28:55.359Z,79.12
2017-11-21T08:31:24.067Z,79.17
2017-11-21T08:33:52.403Z,79.07
2017-11-21T08:36:20.692Z,78.93
2017-11-21T08:38:48.991Z,78.86
2017-11-21T08:41:17.325Z,78.69
2017-11-21T08:43:45.667Z,78.61
2017-11-21T08:46:15.163Z,78.54
2017-11-21T08:48:43.502Z,78.45
2017-11-21T08:51:11.798Z,78.54
2017-11-21T08:53:40.532Z,78.42
2017-11-21T08:56:08.827Z,78.41
2017-11-21T08:58:37.132Z,78.59
2017-11-21T09:01:06.220Z,79.12
2017-11-21T09:03:34.939Z,79.68
2017-11-21T09:06:03.331Z,80.12
2017-11-21T09:08:32.430Z,80.07
2017-11-21T09:11:00.730Z,80.03
2017-11-21T09:13:29.438Z,79.86
2017-11-21T09:15:57.779Z,79.89
2017-11-21T09:18:26.091Z,80.02
2017-11-21T09:20:54.810Z,80.08
2017-11-21T09:23:23.510Z,79.71
2017-11-21T09:25:52.607Z,79.35
2017-11-21T09:28:20.896Z,79.42
2017-11-21T09:30:49.230Z,79.72
2017-11-21T09:33:18.355Z,80.18
2017-11-21T09:35:46.659Z,80.03
2017-11-21T09:38:14.991Z,79.81
2017-11-21T09:40:43.316Z,79.48
2017-11-21T09:43:11.615Z,79.04
2017-11-21T09:45:40.736Z,78.74
2017-11-21T09:48:09.041Z,78.51
2017-11-21T09:50:37.357Z,78.73
2017-11-21T09:53:05.707Z,78.75
2017-11-21T09:55:35.165Z,78.86
2017-11-21T09:58:04.282Z,78.81
2017-11-21T10:00:32.582Z,79.17
2017-11-21T10:03:00.882Z,79.57
2017-11-21T10:05:29.226Z,80.18
2017-11-21T10:07:58.302Z,80.28
2017-11-21T10:10:27.027Z,80.02
2017-11-21T10:12:55.387Z,79.30
2017-11-21T10:15:23.717Z,78.54
2017-11-21T10:17:52.826Z,77.99
2017-11-21T10:20:21.518Z,78.73
2017-11-21T10:22:49.834Z,78.60
2017-11-21T10:25:18.556Z,78.25
2017-11-21T10:27:47.655Z,77.78
2017-11-21T10:30:16.733Z,77.52
2017-11-21T10:32:45.030Z,77.30
2017-11-21T10:35:13.344Z,77.50
2017-11-21T10:37:41.669Z,77.60
2017-11-21T10:40:09.964Z,78.20
2017-11-21T10:42:38.307Z,78.62
2017-11-21T10:45:06.610Z,78.49
2017-11-21T10:47:35.674Z,77.98
2017-11-21T10:50:04.019Z,77.55
2017-11-21T10:52:32.349Z,77.50
2017-11-21T10:55:01.467Z,78.16
2017-11-21T10:57:29.798Z,78.38
2017-11-21T10:59:58.091Z,77.56
2017-11-21T11:02:26.434Z,77.54
2017-11-21T11:04:54.785Z,76.97
2017-11-21T11:07:23.494Z,76.57
2017-11-21T11:09:51.859Z,76.84
2017-11-21T11:12:20.166Z,76.61
2017-11-21T11:14:48.469Z,75.84
2017-11-21T11:17:17.562Z,75.35
2017-11-21T11:19:46.242Z,74.82
2017-11-21T11:22:14.566Z,74.27
2017-11-21T11:24:42.883Z,74.16
2017-11-21T11:27:11.189Z,74.40
2017-11-21T11:29:40.662Z,74.87
2017-11-21T11:32:09.002Z,75.06
2017-11-21T11:34:37.317Z,74.65
2017-11-21T11:37:06.045Z,74.43
2017-11-21T11:39:35.690Z,74.21
2017-11-21T11:42:04.797Z,73.85
2017-11-21T11:44:33.882Z,73.74
2017-11-21T11:47:03.023Z,73.48
2017-11-21T11:49:32.086Z,73.46
2017-11-21T11:52:01.854Z,73.62
2017-11-21T11:54:31.359Z,73.84
2017-11-21T11:56:59.672Z,73.77
2017-11-21T11:59:27.981Z,74.63
2017-11-21T12:01:56.506Z,75.39
2017-11-21T12:04:25.041Z,75.26
2017-11-21T12:06:53.965Z,75.27
2017-11-21T12:09:23.481Z,74.84
2017-11-21T12:11:52.499Z,74.56
2017-11-21T12:14:21.247Z,75.03
2017-11-21T12:16:50.010Z,75.18
2017-11-21T12:19:18.749Z,75.20
2017-11-21T12:21:47.090Z,75.21
2017-11-21T12:24:16.558Z,75.32
2017-11-21T12:26:45.129Z,75.17
2017-11-21T12:29:14.276Z,75.28
2017-11-21T12:31:44.297Z,75.04
2017-11-21T12:34:12.777Z,75.09
2017-11-21T12:36:41.905Z,75.08
2017-11-21T12:39:10.202Z,75.36
2017-11-21T12:41:38.671Z,75.70
2017-11-21T12:44:07.365Z,75.53
2017-11-21T12:46:35.689Z,74.81
2017-11-21T12:49:05.181Z,74.54
2017-11-21T12:51:34.297Z,74.21
2017-11-21T12:54:02.596Z,74.73
2017-11-21T12:56:31.321Z,75.00
2017-11-21T12:58:59.641Z,75.07
2017-11-21T13:01:28.374Z,75.35
2017-11-21T13:03:56.664Z,75.51
2017-11-21T13:06:25.013Z,75.87
2017-11-21T13:08:53.307Z,76.75
2017-11-21T13:11:21.616Z,77.27
2017-11-21T13:13:49.976Z,77.00
2017-11-21T13:16:18.293Z,76.57
2017-11-21T13:18:47.354Z,76.28
2017-11-21T13:21:16.814Z,76.44
2017-11-21T13:23:45.137Z,76.88
2017-11-21T13:26:14.796Z,76.88
2017-11-21T13:28:43.112Z,77.11
2017-11-21T13:31:11.409Z,77.46
2017-11-21T13:33:39.732Z,77.75
2017-11-21T13:36:08.057Z,78.03
2017-11-21T13:38:37.504Z,78.42
2017-11-21T13:41:05.837Z,78.74
2017-11-21T13:43:34.936Z,78.32
2017-11-21T13:46:05.104Z,77.86
2017-11-21T13:48:33.533Z,77.51
2017-11-21T13:51:02.231Z,77.46
2017-11-21T13:53:30.552Z,77.54
2017-11-21T13:55:59.237Z,77.73
2017-11-21T13:58:28.294Z,77.84
2017-11-21T14:00:56.619Z,78.05
2017-11-21T14:03:24.925Z,77.98
2017-11-21T14:05:53.257Z,77.97
2017-11-21T14:08:21.547Z,78.17
2017-11-21T14:10:50.260Z,78.54
2017-11-21T14:13:19.949Z,78.29
2017-11-21T14:15:49.042Z,78.12
2017-11-21T14:18:17.356Z,78.08
2017-11-21T14:20:45.645Z,78.41
2017-11-21T14:23:13.981Z,78.62
2017-11-21T14:25:42.673Z,78.68
2017-11-21T14:28:11.788Z,78.53
2017-11-21T14:30:40.848Z,78.75
2017-11-21T14:33:09.945Z,78.77
2017-11-21T14:35:38.244Z,78.82
2017-11-21T14:38:07.319Z,79.10
2017-11-21T14:40:35.671Z,79.17
2017-11-21T14:43:04.015Z,79.33
2017-11-21T14:45:32.337Z,79.54
2017-11-21T14:48:00.656Z,80.11
2017-11-21T14:50:29.388Z,80.29
2017-11-21T14:52:57.699Z,80.21
2017-11-21T14:55:26.388Z,80.51
2017-11-21T14:57:55.484Z,80.69
2017-11-21T15:00:24.916Z,80.77
2017-11-21T15:02:54.761Z,81.07
2017-11-21T15:05:23.074Z,81.27
2017-11-21T15:07:51.412Z,81.42
2017-11-21T15:10:19.711Z,81.46
2017-11-21T15:12:49.113Z,82.27
2017-11-21T15:15:17.481Z,82.68
2017-11-21T15:17:46.168Z,83.35
2017-11-21T15:20:14.508Z,83.59
2017-11-21T15:22:42.806Z,83.57
2017-11-21T15:25:11.912Z,83.70
2017-11-21T15:27:40.629Z,84.00
2017-11-21T15:30:09.757Z,84.11
2017-11-21T15:32:38.092Z,84.26
2017-11-21T15:35:06.395Z,84.50
2017-11-21T15:37:36.080Z,84.82
2017-11-21T15:40:05.896Z,85.08
2017-11-21T15:42:35.392Z,85.19
2017-11-21T15:45:03.699Z,85.33
2017-11-21T15:47:32.019Z,85.47
2017-11-21T15:50:00.327Z,85.59
2017-11-21T15:52:28.678Z,85.73
2017-11-21T15:54:58.370Z,85.72
2017-11-21T15:57:27.088Z,85.73
2017-11-21T15:59:56.160Z,85.67
2017-11-21T16:02:24.908Z,85.67
2017-11-21T16:04:53.224Z,85.73
2017-11-21T16:07:21.524Z,85.76
2017-11-21T16:09:50.255Z,85.87
2017-11-21T16:12:20.211Z,86.07
2017-11-21T16:14:48.567Z,86.22
2017-11-21T16:17:16.872Z,86.31
2017-11-21T16:19:47.238Z,86.21
2017-11-21T16:22:16.361Z,86.12
2017-11-21T16:24:45.447Z,86.02
2017-11-21T16:27:14.612Z,85.90
2017-11-21T16:29:44.108Z,85.83
2017-11-21T16:32:13.420Z,85.67
2017-11-21T16:34:42.157Z,85.36
2017-11-21T16:37:10.515Z,85.22
2017-11-21T16:39:38.848Z,84.84
2017-11-21T16:42:08.781Z,84.59
2017-11-21T16:44:38.638Z,84.53
2017-11-21T16:47:08.695Z,84.35
2017-11-21T16:49:38.428Z,83.97
2017-11-21T16:52:08.161Z,83.80
2017-11-21T16:54:37.628Z,83.74
2017-11-21T16:57:07.322Z,83.66
2017-11-21T16:59:39.115Z,83.64
2017-11-21T17:02:08.524Z,83.66
2017-11-21T17:04:38.397Z,83.70
2017-11-21T17:07:08.022Z,83.89
2017-11-21T17:09:39.507Z,83.94
2017-11-21T17:12:07.920Z,83.77
2017-11-21T17:14:36.261Z,83.64
2017-11-21T17:17:04.591Z,83.41
2017-11-21T17:19:33.738Z,83.26
2017-11-21T17:22:02.061Z,83.14
2017-11-21T17:24:30.403Z,83.11
2017-11-21T17:26:58.734Z,83.09
2017-11-21T17:29:27.120Z,83.00
2017-11-21T17:32:01.231Z,82.94
2017-11-21T17:34:30.814Z,82.92
2017-11-21T17:37:00.109Z,83.02
2017-11-21T17:39:28.479Z,83.45
2017-11-21T17:41:57.664Z,83.60
2017-11-21T17:44:27.121Z,83.62
2017-11-21T17:46:55.414Z,83.70
2017-11-21T17:49:23.755Z,83.60
2017-11-21T17:51:53.614Z,83.59
2017-11-21T17:54:22.330Z,83.64
2017-11-21T17:56:50.711Z,83.61
2017-11-21T17:59:20.725Z,83.51
2017-11-21T18:01:49.087Z,83.57
2017-11-21T18:04:17.823Z,83.57
2017-11-21T18:06:47.517Z,83.65
2017-11-21T18:09:15.826Z,83.58
2017-11-21T18:11:44.204Z,83.67
2017-11-21T18:14:13.810Z,83.80
2017-11-21T18:16:44.218Z,83.83
2017-11-21T18:19:13.002Z,83.70
2017-11-21T18:21:41.715Z,83.79
2017-11-21T18:24:11.567Z,84.03
2017-11-21T18:26:40.295Z,84.23
2017-11-21T18:29:08.994Z,84.53
2017-11-21T18:31:37.351Z,84.74
2017-11-21T18:34:06.469Z,84.82
2017-11-21T18:36:35.305Z,84.98
2017-11-21T18:39:04.958Z,85.00
2017-11-21T18:41:33.295Z,85.00
2017-11-21T18:44:01.862Z,84.80
2017-11-21T18:46:30.192Z,84.63
2017-11-21T18:48:59.270Z,84.46
2017-11-21T18:51:28.392Z,84.25
2017-11-21T18:53:56.711Z,84.24
2017-11-21T18:56:25.069Z,84.22
2017-11-21T18:58:54.229Z,84.19
2017-11-21T19:01:24.589Z,84.28
2017-11-21T19:03:54.310Z,84.56
2017-11-21T19:06:23.079Z,84.57
2017-11-21T19:08:52.171Z,84.55
2017-11-21T19:11:20.556Z,84.58
2017-11-21T19:13:48.877Z,84.79
2017-11-21T19:16:18.761Z,84.77
2017-11-21T19:18:47.479Z,84.69
2017-11-21T19:21:16.233Z,84.60
2017-11-21T19:23:46.149Z,84.57
2017-11-21T19:26:15.327Z,84.71
2017-11-21T19:28:44.450Z,84.68
2017-11-21T19:31:13.543Z,84.60
2017-11-21T19:33:42.637Z,84.55
2017-11-21T19:36:13.174Z,84.51
2017-11-21T19:38:41.975Z,84.61
2017-11-21T19:41:11.122Z,84.69
2017-11-21T19:43:41.020Z,84.95
2017-11-21T19:46:10.770Z,85.22
2017-11-21T19:48:39.103Z,85.31
2017-11-21T19:51:08.205Z,85.63
2017-11-21T19:53:36.537Z,85.86
2017-11-21T19:56:04.894Z,86.01
2017-11-21T19:58:33.226Z,86.06
2017-11-21T20:01:02.345Z,85.90
2017-11-21T20:03:30.673Z,85.99
2017-11-21T20:06:00.546Z,86.07
2017-11-21T20:08:28.859Z,86.05
2017-11-21T20:10:57.625Z,86.03
2017-11-21T20:13:26.727Z,86.09
2017-11-21T20:15:55.082Z,86.12
2017-11-21T20:18:23.801Z,85.96
2017-11-21T20:20:53.949Z,85.73
2017-11-21T20:23:23.673Z,85.87
2017-11-21T20:25:53.529Z,86.03
2017-11-21T20:28:23.584Z,86.10
2017-11-21T20:30:53.280Z,86.21
2017-11-21T20:33:21.646Z,86.18
2017-11-21T20:35:50.090Z,86.19
2017-11-21T20:38:19.181Z,86.17
2017-11-21T20:40:48.653Z,86.16
2017-11-21T20:43:18.096Z,86.26
2017-11-21T20:45:46.865Z,86.32
2017-11-21T20:48:15.963Z,86.24
2017-11-21T20:50:44.833Z,86.16
2017-11-21T20:53:14.709Z,86.01
2017-11-21T20:55:46.937Z,85.94
2017-11-21T20:58:15.270Z,85.92
2017-11-21T21:00:43.657Z,85.75
2017-11-21T21:03:13.111Z,85.64
2017-11-21T21:05:42.589Z,85.60
2017-11-21T21:08:12.057Z,85.57
2017-11-21T21:10:42.529Z,85.56
2017-11-21T21:13:12.057Z,85.51
2017-11-21T21:15:40.375Z,85.59
2017-11-21T21:18:09.466Z,85.66
2017-11-21T21:20:37.774Z,85.70
2017-11-21T21:23:06.125Z,85.73
2017-11-21T21:25:35.986Z,85.78
2017-11-21T21:28:05.092Z,85.69
2017-11-21T21:30:33.438Z,85.71
2017-11-21T21:33:02.187Z,85.65
2017-11-21T21:35:32.157Z,85.65
2017-11-21T21:38:02.088Z,85.65
2017-11-21T21:40:31.704Z,85.66
2017-11-21T21:43:00.426Z,85.66
2017-11-21T21:45:29.494Z,85.68
2017-11-21T21:47:57.834Z,85.72
2017-11-21T21:50:26.141Z,85.73
2017-11-21T21:52:54.549Z,85.69
2017-11-21T21:55:25.379Z,85.70
2017-11-21T21:57:53.748Z,85.70
2017-11-21T22:00:23.422Z,85.72
2017-11-21T22:02:52.892Z,85.74
2017-11-21T22:05:21.981Z,85.83
2017-11-21T22:07:50.362Z,85.97
2017-11-21T22:10:19.501Z,86.13
2017-11-21T22:12:47.827Z,86.22
2017-11-21T22:15:16.988Z,86.30
2017-11-21T22:17:45.749Z,86.31
2017-11-21T22:20:14.093Z,86.28
2017-11-21T22:22:42.432Z,86.26
2017-11-21T22:25:11.528Z,86.27
2017-11-21T22:27:41.377Z,86.37
2017-11-21T22:30:09.821Z,86.66
2017-11-21T22:32:38.208Z,87.10
2017-11-21T22:35:06.541Z,87.44
2017-11-21T22:37:37.008Z,87.81
2017-11-21T22:40:05.754Z,88.09
2017-11-21T22:42:34.496Z,88.32
2017-11-21T22:45:04.317Z,88.51
2017-11-21T22:50:14.113Z,88.82
2017-11-21T22:52:42.468Z,88.91
2017-11-21T22:55:11.265Z,88.96
2017-11-21T22:57:40.416Z,89.00
2017-11-21T23:00:09.186Z,89.07
2017-11-21T23:02:37.968Z,89.08
2017-11-21T23:05:06.284Z,89.12
2017-11-21T23:07:35.777Z,89.10
2017-11-21T23:10:05.781Z,89.09
2017-11-21T23:12:34.228Z,89.07
2017-11-21T23:15:02.616Z,89.05
2017-11-21T23:17:31.360Z,89.08
2017-11-21T23:20:00.451Z,89.10
2017-11-21T23:22:29.196Z,89.11
2017-11-21T23:24:57.502Z,89.07
2017-11-21T23:27:26.233Z,89.04
2017-11-21T23:29:55.422Z,88.96
2017-11-21T23:32:24.126Z,88.92
2017-11-21T23:34:52.457Z,88.93
2017-11-21T23:37:20.761Z,88.94
2017-11-21T23:39:49.068Z,88.90
2017-11-21T23:42:17.393Z,88.85
2017-11-21T23:44:46.487Z,88.82
2017-11-21T23:47:15.579Z,88.76
2017-11-21T23:49:43.872Z,88.77
2017-11-21T23:52:12.997Z,88.82
2017-11-21T23:54:41.303Z,88.80
2017-11-21T23:57:09.611Z,88.81
2017-11-21T23:59:38.357Z,88.82
